Time;durP1;ratioP1;P1;durP2;ratioP2;P2;SDS_P1;SDS_P2;PMS_P1;PMS_P2;Temp;Humidity;BMP_temperature;BMP_pressure;BME280_temperature;BME280_humidity;BME280_pressure;Samples;Min_cycle;Max_cycle;Signal;HPM_P1;HPM_P2
2024/02/23 00:01:45;;;;;;;;;;;6.50;79.80;;;;;;5002578;28;19921;-84
2024/02/23 00:04:11;;;;;;;;;;;6.50;99.90;;;;;;5008113;28;19952;-82
2024/02/23 00:06:39;;;;;;;;;;;6.40;99.90;;;;;;5019276;28;19963;-83
2024/02/23 00:09:05;;;;;;;;;;;6.40;99.90;;;;;;5006434;28;19924;-83
2024/02/23 00:11:44;;;;;;;;;;;6.30;99.90;;;;;;5016350;28;19913;-84
2024/02/23 00:14:10;;;;;;;;;;;6.30;99.90;;;;;;5022880;28;19918;-84
2024/02/23 00:16:54;;;;;;;;;;;6.30;99.90;;;;;;5023358;28;19940;-83
2024/02/23 00:19:22;;;;;;;;;;;6.30;99.90;;;;;;5026007;28;20390;-83
2024/02/23 00:22:06;;;;;;;;;;;6.30;99.90;;;;;;5029538;28;19940;-83
2024/02/23 00:24:36;;;;;;;;;;;6.30;99.90;;;;;;5012324;28;20264;-83
2024/02/23 00:27:02;;;;;;;;;;;6.30;45.70;;;;;;5004498;28;19981;-83
2024/02/23 00:29:28;;;;;;;;;;;6.30;1.00;;;;;;5007498;28;19967;-84
2024/02/23 00:31:54;;;;;;;;;;;6.30;1.00;;;;;;5002958;28;20015;-83
2024/02/23 00:34:22;;;;;;;;;;;6.30;1.00;;;;;;5033341;28;19956;-84
2024/02/23 00:36:57;;;;;;;;;;;6.30;1.00;;;;;;5034913;28;19913;-83
2024/02/23 00:39:23;;;;;;;;;;;6.30;1.00;;;;;;5011119;28;19913;-82
2024/02/23 00:41:48;;;;;;;;;;;6.30;99.90;;;;;;5018232;28;19944;-82
2024/02/23 00:44:14;;;;;;;;;;;6.20;99.90;;;;;;5008767;28;19925;-84
2024/02/23 00:46:40;;;;;;;;;;;6.10;99.90;;;;;;5002970;28;20406;-83
2024/02/23 00:49:05;;;;;;;;;;;6.20;99.90;;;;;;5033951;28;19924;-85
2024/02/23 00:51:33;;;;;;;;;;;6.10;99.90;;;;;;5032412;28;20004;-83
2024/02/23 00:53:59;;;;;;;;;;;6.10;84.20;;;;;;5003981;28;19914;-83
2024/02/23 00:56:25;;;;;;;;;;;6.10;29.40;;;;;;5004528;28;20351;-83
2024/02/23 00:58:51;;;;;;;;;;;6.20;1.00;;;;;;5004308;28;19913;-83
2024/02/23 01:01:16;;;;;;;;;;;6.10;1.00;;;;;;5025102;28;19921;-83
2024/02/23 01:03:42;;;;;;;;;;;6.00;1.00;;;;;;5020057;28;19932;-83
2024/02/23 01:06:10;;;;;;;;;;;6.10;1.00;;;;;;5005316;28;19920;-83
2024/02/23 01:08:36;;;;;;;;;;;6.10;1.00;;;;;;5005827;28;19920;-84
2024/02/23 01:11:02;;;;;;;;;;;6.00;1.00;;;;;;5014050;28;19953;-82
2024/02/23 01:13:27;;;;;;;;;;;6.10;49.10;;;;;;5005754;28;19964;-84
2024/02/23 01:15:53;;;;;;;;;;;6.00;99.90;;;;;;4998961;28;19914;-83
2024/02/23 01:18:19;;;;;;;;;;;6.10;99.90;;;;;;5055092;22;19929;-83
2024/02/23 01:20:45;;;;;;;;;;;6.10;99.90;;;;;;5049136;28;20391;-81
2024/02/23 01:23:10;;;;;;;;;;;6.10;99.90;;;;;;5051845;28;20401;-83
2024/02/23 01:25:36;;;;;;;;;;;6.00;26.50;;;;;;5034694;28;19913;-82
2024/02/23 01:28:01;;;;;;;;;;;6.00;43.80;;;;;;5041183;28;20278;-82
2024/02/23 01:30:27;;;;;;;;;;;6.00;1.00;;;;;;5045903;28;19924;-83
2024/02/23 01:32:52;;;;;;;;;;;6.00;1.00;;;;;;5050740;28;20379;-82
2024/02/23 01:35:18;;;;;;;;;;;6.00;1.00;;;;;;5045881;28;20051;-83
2024/02/23 01:37:43;;;;;;;;;;;6.00;1.00;;;;;;5048948;28;20485;-82
2024/02/23 01:40:09;;;;;;;;;;;6.00;1.00;;;;;;5039961;28;20414;-82
2024/02/23 01:42:34;;;;;;;;;;;6.00;1.00;;;;;;5045834;28;19917;-83
2024/02/23 01:45:01;;;;;;;;;;;6.00;1.00;;;;;;5035771;28;19917;-82
2024/02/23 01:47:28;;;;;;;;;;;5.90;1.00;;;;;;5034266;28;19970;-83
2024/02/23 01:49:53;;;;;;;;;;;5.90;1.00;;;;;;5049973;28;19956;-83
2024/02/23 01:52:20;;;;;;;;;;;5.90;1.00;;;;;;5045017;28;19933;-82
2024/02/23 01:54:45;;;;;;;;;;;5.90;11.10;;;;;;5051795;28;20000;-83
2024/02/23 01:57:11;;;;;;;;;;;5.80;14.50;;;;;;5052934;28;19932;-83
2024/02/23 01:59:37;;;;;;;;;;;5.90;1.00;;;;;;5046024;28;20294;-82
2024/02/23 02:02:03;;;;;;;;;;;5.80;1.00;;;;;;5052914;28;19921;-83
2024/02/23 02:04:29;;;;;;;;;;;5.80;1.00;;;;;;5039485;28;20605;-83
2024/02/23 02:06:55;;;;;;;;;;;5.80;1.00;;;;;;5032828;28;19913;-83
2024/02/23 02:09:20;;;;;;;;;;;5.80;1.00;;;;;;5051064;28;20273;-83
2024/02/23 02:11:49;;;;;;;;;;;5.70;1.00;;;;;;5029685;28;20318;-83
2024/02/23 02:14:15;;;;;;;;;;;5.80;1.00;;;;;;5047442;28;19948;-83
2024/02/23 02:16:41;;;;;;;;;;;5.70;1.00;;;;;;5051626;28;19913;-83
2024/02/23 02:19:06;;;;;;;;;;;5.80;1.00;;;;;;5055301;28;19928;-83
2024/02/23 02:21:32;;;;;;;;;;;5.70;1.00;;;;;;5058902;28;19927;-83
2024/02/23 02:23:58;;;;;;;;;;;5.70;1.00;;;;;;5051818;28;19919;-83
2024/02/23 02:26:23;;;;;;;;;;;5.70;1.00;;;;;;5030018;28;19917;-83
2024/02/23 02:28:49;;;;;;;;;;;5.60;1.00;;;;;;5053390;28;19983;-83
2024/02/23 02:31:14;;;;;;;;;;;5.60;1.00;;;;;;5059081;28;19919;-83
2024/02/23 02:33:40;;;;;;;;;;;5.60;1.00;;;;;;5050466;28;19936;-83
2024/02/23 02:36:06;;;;;;;;;;;5.60;1.00;;;;;;5054770;28;19935;-83
2024/02/23 02:38:33;;;;;;;;;;;5.60;1.00;;;;;;5058879;28;19934;-83
2024/02/23 02:41:00;;;;;;;;;;;5.60;1.00;;;;;;5038245;28;19920;-83
2024/02/23 02:43:25;;;;;;;;;;;5.60;1.00;;;;;;5049093;28;20318;-83
2024/02/23 02:45:51;;;;;;;;;;;5.60;1.00;;;;;;5045409;28;19917;-83
2024/02/23 02:48:17;;;;;;;;;;;5.60;1.00;;;;;;5049691;28;19913;-83
2024/02/23 02:50:42;;;;;;;;;;;5.60;1.00;;;;;;5056247;28;19955;-83
2024/02/23 02:53:08;;;;;;;;;;;5.60;1.00;;;;;;5057289;28;19920;-84
2024/02/23 02:55:33;;;;;;;;;;;5.60;1.00;;;;;;5058967;28;19939;-83
2024/02/23 02:57:59;;;;;;;;;;;5.70;1.00;;;;;;5055083;28;19913;-84
2024/02/23 03:00:24;;;;;;;;;;;5.70;1.00;;;;;;5051381;28;20396;-83
2024/02/23 03:02:50;;;;;;;;;;;5.70;1.00;;;;;;5059320;28;19917;-83
2024/02/23 03:05:15;;;;;;;;;;;5.70;99.90;;;;;;5038338;28;19913;-83
2024/02/23 03:07:40;;;;;;;;;;;5.80;99.90;;;;;;5051735;28;19913;-83
2024/02/23 03:10:06;;;;;;;;;;;5.80;99.90;;;;;;5052907;28;19917;-83
2024/02/23 03:12:32;;;;;;;;;;;5.80;1.00;;;;;;5054962;28;19919;-83
2024/02/23 03:14:58;;;;;;;;;;;5.80;99.90;;;;;;5037505;28;20386;-84
2024/02/23 03:17:23;;;;;;;;;;;5.80;99.90;;;;;;5056600;28;19916;-83
2024/02/23 03:19:50;;;;;;;;;;;5.80;99.90;;;;;;5049101;28;19924;-83
2024/02/23 03:22:15;;;;;;;;;;;5.80;99.90;;;;;;5034610;28;19923;-82
2024/02/23 03:24:41;;;;;;;;;;;5.80;82.10;;;;;;5058018;28;19995;-83
2024/02/23 03:27:06;;;;;;;;;;;5.80;1.00;;;;;;5057791;28;19952;-83
2024/02/23 03:29:32;;;;;;;;;;;5.80;1.00;;;;;;5057188;28;19912;-83
2024/02/23 03:31:58;;;;;;;;;;;5.70;1.00;;;;;;5052812;28;19936;-83
2024/02/23 03:34:23;;;;;;;;;;;5.70;1.00;;;;;;5054542;28;20387;-83
2024/02/23 03:36:49;;;;;;;;;;;5.60;99.90;;;;;;5063353;28;19913;-84
2024/02/23 03:39:14;;;;;;;;;;;5.60;99.90;;;;;;5062622;28;20329;-83
2024/02/23 03:41:40;;;;;;;;;;;5.60;1.00;;;;;;5059631;28;19928;-83
2024/02/23 03:44:05;;;;;;;;;;;5.60;1.00;;;;;;5034127;28;19913;-83
2024/02/23 03:46:31;;;;;;;;;;;5.60;1.00;;;;;;5057158;28;19952;-82
2024/02/23 03:48:57;;;;;;;;;;;5.60;1.00;;;;;;5059401;28;20425;-83
2024/02/23 03:51:23;;;;;;;;;;;5.60;1.00;;;;;;5059108;28;19959;-83
2024/02/23 03:53:48;;;;;;;;;;;5.60;1.00;;;;;;5056378;28;19920;-83
2024/02/23 03:56:14;;;;;;;;;;;5.60;99.90;;;;;;5058465;28;20303;-83
2024/02/23 03:58:39;;;;;;;;;;;5.60;99.90;;;;;;5060576;28;19913;-83
2024/02/23 04:01:04;;;;;;;;;;;5.60;99.90;;;;;;5062929;28;19913;-83
2024/02/23 04:03:30;;;;;;;;;;;5.60;1.00;;;;;;5045950;28;20015;-83
2024/02/23 04:05:55;;;;;;;;;;;5.60;99.90;;;;;;5053975;28;19966;-83
2024/02/23 04:08:21;;;;;;;;;;;5.60;99.90;;;;;;5038708;28;19913;-83
2024/02/23 04:10:46;;;;;;;;;;;5.60;99.90;;;;;;5060637;28;19924;-83
2024/02/23 04:13:13;;;;;;;;;;;5.60;99.90;;;;;;5064625;28;19913;-83
2024/02/23 04:15:39;;;;;;;;;;;5.60;1.00;;;;;;5038821;28;20006;-83
2024/02/23 04:18:05;;;;;;;;;;;5.60;28.80;;;;;;5052742;28;19920;-83
2024/02/23 04:20:30;;;;;;;;;;;5.70;1.00;;;;;;5055634;28;19980;-83
2024/02/23 04:22:56;;;;;;;;;;;5.70;19.00;;;;;;5039471;28;19931;-83
2024/02/23 04:25:21;;;;;;;;;;;5.70;11.60;;;;;;5052351;28;19967;-82
2024/02/23 04:27:47;;;;;;;;;;;5.80;12.00;;;;;;5045711;28;19913;-82
2024/02/23 04:30:12;;;;;;;;;;;5.80;1.00;;;;;;5031052;28;20028;-83
2024/02/23 04:32:38;;;;;;;;;;;5.80;1.00;;;;;;5035844;28;19912;-83
2024/02/23 04:35:04;;;;;;;;;;;5.90;99.90;;;;;;5045729;28;19924;-82
2024/02/23 04:37:29;;;;;;;;;;;5.90;99.90;;;;;;5038437;28;19920;-82
2024/02/23 04:39:55;;;;;;;;;;;5.90;1.00;;;;;;5043975;28;19913;-82
2024/02/23 04:42:20;;;;;;;;;;;5.90;1.00;;;;;;5027705;28;19921;-82
2024/02/23 04:44:46;;;;;;;;;;;5.90;99.90;;;;;;5051650;28;20282;-83
2024/02/23 04:47:11;;;;;;;;;;;6.00;79.50;;;;;;5030183;28;19938;-82
2024/02/23 04:49:37;;;;;;;;;;;6.00;99.90;;;;;;5041302;28;19920;-83
2024/02/23 04:52:02;;;;;;;;;;;6.00;1.00;;;;;;5030189;28;19913;-82
2024/02/23 04:54:28;;;;;;;;;;;6.00;1.00;;;;;;5047222;28;19952;-83
2024/02/23 04:56:53;;;;;;;;;;;5.90;1.00;;;;;;5034906;28;19917;-82
2024/02/23 04:59:19;;;;;;;;;;;5.90;99.90;;;;;;5046372;28;19913;-82
2024/02/23 05:01:44;;;;;;;;;;;5.90;99.90;;;;;;5041248;28;20493;-82
2024/02/23 05:04:09;;;;;;;;;;;5.90;1.00;;;;;;5053759;28;19947;-83
2024/02/23 05:06:35;;;;;;;;;;;5.90;99.90;;;;;;5058736;28;19984;-83
2024/02/23 05:09:01;;;;;;;;;;;5.90;99.90;;;;;;5062214;28;20008;-83
2024/02/23 05:11:26;;;;;;;;;;;5.90;99.90;;;;;;5046075;28;20008;-83
2024/02/23 05:13:52;;;;;;;;;;;5.90;99.90;;;;;;5060381;28;19913;-83
2024/02/23 05:16:17;;;;;;;;;;;5.90;99.90;;;;;;5053741;28;20427;-83
2024/02/23 05:18:43;;;;;;;;;;;5.90;99.90;;;;;;5056848;28;19924;-82
2024/02/23 05:21:09;;;;;;;;;;;5.90;99.90;;;;;;5051149;28;19913;-83
2024/02/23 05:23:35;;;;;;;;;;;5.90;1.00;;;;;;5053257;28;19916;-83
2024/02/23 05:26:00;;;;;;;;;;;5.90;1.00;;;;;;5038437;28;19927;-83
2024/02/23 05:28:26;;;;;;;;;;;6.00;1.00;;;;;;5055666;28;19913;-83
2024/02/23 05:30:51;;;;;;;;;;;6.00;1.00;;;;;;5062097;28;19913;-83
2024/02/23 05:33:20;;;;;;;;;;;6.00;99.90;;;;;;5048850;28;19913;-83
2024/02/23 05:35:48;;;;;;;;;;;6.00;99.90;;;;;;5048882;28;19913;-84
2024/02/23 05:38:14;;;;;;;;;;;6.10;99.90;;;;;;5032627;28;19917;-82
2024/02/23 05:40:39;;;;;;;;;;;6.10;99.90;;;;;;5050359;28;19967;-83
2024/02/23 05:43:05;;;;;;;;;;;6.10;18.30;;;;;;5040945;28;19917;-83
2024/02/23 05:45:30;;;;;;;;;;;6.10;72.80;;;;;;5045543;28;19955;-82
2024/02/23 05:47:56;;;;;;;;;;;6.10;99.90;;;;;;5064358;28;19916;-83
2024/02/23 05:50:21;;;;;;;;;;;6.10;99.90;;;;;;5063685;28;19931;-83
2024/02/23 05:52:47;;;;;;;;;;;6.10;99.90;;;;;;5061510;28;19970;-83
2024/02/23 05:55:12;;;;;;;;;;;6.10;99.90;;;;;;5059602;28;19959;-83
2024/02/23 05:57:38;;;;;;;;;;;6.20;1.00;;;;;;5057577;28;20000;-83
2024/02/23 06:00:04;;;;;;;;;;;6.20;1.00;;;;;;5041835;28;19919;-82
2024/02/23 06:02:29;;;;;;;;;;;6.20;1.00;;;;;;5057471;28;19920;-82
2024/02/23 06:04:55;;;;;;;;;;;6.10;1.00;;;;;;5059144;28;19909;-83
2024/02/23 06:07:26;;;;;;;;;;;6.10;1.00;;;;;;5059976;28;19909;-81
2024/02/23 06:09:52;;;;;;;;;;;6.10;1.00;;;;;;5041819;28;19942;-83
2024/02/23 06:12:17;;;;;;;;;;;6.10;1.00;;;;;;5060913;28;20386;-82
2024/02/23 06:14:43;;;;;;;;;;;6.10;98.50;;;;;;5059684;28;20642;-82
2024/02/23 06:17:08;;;;;;;;;;;6.10;63.20;;;;;;5042726;28;19909;-82
2024/02/23 06:19:34;;;;;;;;;;;6.10;55.20;;;;;;5042329;28;19925;-82
2024/02/23 06:21:59;;;;;;;;;;;6.10;99.90;;;;;;5060264;28;19913;-82
2024/02/23 06:24:25;;;;;;;;;;;6.10;99.90;;;;;;5060419;28;19909;-83
2024/02/23 06:26:52;;;;;;;;;;;6.10;99.90;;;;;;5061104;28;19912;-83
2024/02/23 06:29:17;;;;;;;;;;;6.10;99.90;;;;;;5060611;28;19909;-83
2024/02/23 06:31:48;;;;;;;;;;;6.10;99.90;;;;;;5060919;28;19909;-83
2024/02/23 06:34:14;;;;;;;;;;;6.10;99.90;;;;;;5064062;28;19924;-83
2024/02/23 06:36:40;;;;;;;;;;;6.10;99.90;;;;;;5062984;28;19913;-82
2024/02/23 06:39:05;;;;;;;;;;;6.10;99.90;;;;;;5063027;28;19912;-83
2024/02/23 06:41:31;;;;;;;;;;;6.10;99.90;;;;;;5062266;28;19991;-83
2024/02/23 06:43:56;;;;;;;;;;;6.10;99.90;;;;;;5062427;28;20366;-82
2024/02/23 06:46:22;;;;;;;;;;;6.10;99.90;;;;;;5062580;28;19913;-83
2024/02/23 06:48:48;;;;;;;;;;;6.10;1.00;;;;;;5062612;28;19909;-82
2024/02/23 06:51:15;;;;;;;;;;;6.10;1.00;;;;;;5056713;28;19920;-83
2024/02/23 06:53:40;;;;;;;;;;;6.20;1.00;;;;;;5062297;28;19909;-81
2024/02/23 06:56:06;;;;;;;;;;;6.20;1.00;;;;;;5062357;28;19932;-83
2024/02/23 06:58:31;;;;;;;;;;;6.30;99.90;;;;;;5064405;28;19916;-83
2024/02/23 07:00:57;;;;;;;;;;;6.30;1.00;;;;;;5067792;28;19916;-83
2024/02/23 07:03:22;;;;;;;;;;;6.50;99.90;;;;;;5066660;28;20148;-83
2024/02/23 07:05:49;;;;;;;;;;;6.70;1.00;;;;;;5070866;28;19948;-82
2024/02/23 07:08:15;;;;;;;;;;;6.90;1.00;;;;;;5065501;28;19913;-83
2024/02/23 07:10:40;;;;;;;;;;;7.00;1.00;;;;;;5060056;28;19924;-83
2024/02/23 07:13:07;;;;;;;;;;;7.00;1.00;;;;;;5065633;28;19912;-83
2024/02/23 07:15:32;;;;;;;;;;;7.10;1.00;;;;;;5066756;28;19919;-82
2024/02/23 07:17:58;;;;;;;;;;;7.10;1.00;;;;;;5059703;28;19972;-83
2024/02/23 07:20:24;;;;;;;;;;;7.20;1.00;;;;;;5056208;28;19913;-82
2024/02/23 07:22:49;;;;;;;;;;;7.30;1.00;;;;;;5035241;28;19960;-82
2024/02/23 07:25:19;;;;;;;;;;;7.80;1.00;;;;;;5054909;28;20371;-82
2024/02/23 07:27:45;;;;;;;;;;;9.00;99.90;;;;;;5038074;28;20379;-83
2024/02/23 07:30:11;;;;;;;;;;;9.30;48.00;;;;;;5056027;28;19909;-82
2024/02/23 07:32:36;;;;;;;;;;;9.40;8.50;;;;;;5054197;28;19912;-82
2024/02/23 07:35:03;;;;;;;;;;;9.70;1.00;;;;;;5053233;28;19909;-82
2024/02/23 07:37:29;;;;;;;;;;;10.40;1.00;;;;;;5052008;28;19913;-82
2024/02/23 07:39:54;;;;;;;;;;;10.20;1.00;;;;;;5056435;28;19919;-83
2024/02/23 07:42:22;;;;;;;;;;;11.10;1.00;;;;;;5050707;28;20007;-82
2024/02/23 07:44:48;;;;;;;;;;;13.70;1.00;;;;;;5049633;28;19916;-83
2024/02/23 07:47:13;;;;;;;;;;;15.60;1.00;;;;;;5053525;28;19924;-83
2024/02/23 07:49:40;;;;;;;;;;;15.10;1.00;;;;;;5051940;28;19916;-82
2024/02/23 07:52:06;;;;;;;;;;;14.80;1.00;;;;;;5055680;28;19923;-83
2024/02/23 07:54:32;;;;;;;;;;;14.20;1.00;;;;;;5055465;28;19999;-84
2024/02/23 07:56:57;;;;;;;;;;;15.80;1.00;;;;;;5055929;28;19917;-83
2024/02/23 07:59:23;;;;;;;;;;;16.00;1.00;;;;;;5045891;28;19932;-83
2024/02/23 08:01:48;;;;;;;;;;;15.00;1.00;;;;;;5051138;28;19920;-82
2024/02/23 08:04:14;;;;;;;;;;;14.20;1.00;;;;;;5050667;28;19987;-83
2024/02/23 08:06:39;;;;;;;;;;;14.80;1.00;;;;;;5061602;28;19935;-83
2024/02/23 08:09:05;;;;;;;;;;;14.40;1.00;;;;;;5061629;28;19916;-83
2024/02/23 08:11:30;;;;;;;;;;;13.90;1.00;;;;;;5045881;28;19912;-82
2024/02/23 08:13:56;;;;;;;;;;;12.90;1.00;;;;;;5059489;28;19915;-82
2024/02/23 08:16:21;;;;;;;;;;;12.00;1.00;;;;;;5050220;28;19935;-82
2024/02/23 08:18:47;;;;;;;;;;;11.30;1.00;;;;;;5056638;28;19917;-83
2024/02/23 08:21:12;;;;;;;;;;;10.90;1.00;;;;;;5058805;28;20301;-83
2024/02/23 08:23:38;;;;;;;;;;;10.50;1.00;;;;;;5037385;28;19932;-82
2024/02/23 08:26:03;;;;;;;;;;;12.40;1.00;;;;;;5051151;28;20054;-82
2024/02/23 08:28:29;;;;;;;;;;;15.80;1.00;;;;;;5033871;28;19916;-82
2024/02/23 08:30:54;;;;;;;;;;;18.60;1.00;;;;;;5047052;28;19909;-83
2024/02/23 08:33:20;;;;;;;;;;;20.70;99.90;;;;;;5049438;28;20333;-83
2024/02/23 08:35:48;;;;;;;;;;;22.40;1.00;;;;;;5052323;28;19913;-83
2024/02/23 08:38:13;;;;;;;;;;;24.00;1.00;;;;;;5052221;28;19924;-84
2024/02/23 08:40:39;;;;;;;;;;;24.70;99.90;;;;;;5053282;28;19908;-84
2024/02/23 08:43:05;;;;;;;;;;;25.80;1.00;;;;;;5052768;28;20301;-84
2024/02/23 08:45:30;;;;;;;;;;;26.70;1.00;;;;;;5048397;28;19917;-84
2024/02/23 08:47:56;;;;;;;;;;;26.90;1.00;;;;;;5052449;28;20267;-84
2024/02/23 08:50:21;;;;;;;;;;;27.30;1.00;;;;;;5047723;28;20385;-84
2024/02/23 08:52:47;;;;;;;;;;;26.70;1.00;;;;;;5035804;28;19909;-84
2024/02/23 08:55:12;;;;;;;;;;;26.60;1.00;;;;;;5053886;28;19920;-83
2024/02/23 08:57:38;;;;;;;;;;;25.40;1.00;;;;;;5053921;28;19912;-84
2024/02/23 09:00:04;;;;;;;;;;;23.40;1.00;;;;;;5037271;28;19909;-83
2024/02/23 09:02:30;;;;;;;;;;;21.70;1.00;;;;;;5047453;28;19913;-83
2024/02/23 09:04:56;;;;;;;;;;;20.00;1.00;;;;;;5035461;28;20326;-83
2024/02/23 09:07:21;;;;;;;;;;;18.90;1.00;;;;;;5056491;28;19916;-83
2024/02/23 09:09:48;;;;;;;;;;;18.40;1.00;;;;;;5058290;28;19924;-83
2024/02/23 09:12:16;;;;;;;;;;;17.60;1.00;;;;;;5059049;28;19913;-83
2024/02/23 09:14:43;;;;;;;;;;;16.90;1.00;;;;;;5059190;28;19931;-81
2024/02/23 09:17:09;;;;;;;;;;;15.80;1.00;;;;;;5060230;28;19916;-83
2024/02/23 09:19:36;;;;;;;;;;;15.20;1.00;;;;;;5054408;28;19924;-82
2024/02/23 09:22:02;;;;;;;;;;;14.60;1.00;;;;;;5054765;28;19924;-82
2024/02/23 09:24:27;;;;;;;;;;;14.10;1.00;;;;;;5061708;28;19923;-83
2024/02/23 09:26:53;;;;;;;;;;;13.60;1.00;;;;;;5060283;28;19917;-83
2024/02/23 09:29:18;;;;;;;;;;;13.30;1.00;;;;;;5060776;28;19912;-83
2024/02/23 09:31:44;;;;;;;;;;;13.20;1.00;;;;;;5061192;28;19913;-82
2024/02/23 09:34:10;;;;;;;;;;;13.20;1.00;;;;;;5042063;28;19967;-83
2024/02/23 09:36:35;;;;;;;;;;;12.90;1.00;;;;;;5043209;28;19912;-83
2024/02/23 09:39:01;;;;;;;;;;;12.60;1.00;;;;;;5055839;28;19944;-83
2024/02/23 09:41:27;;;;;;;;;;;12.50;1.00;;;;;;5060609;28;19920;-83
2024/02/23 09:43:57;;;;;;;;;;;13.40;1.00;;;;;;5060260;28;19917;-83
2024/02/23 09:46:23;;;;;;;;;;;13.80;1.00;;;;;;5041191;28;19956;-83
2024/02/23 09:48:50;;;;;;;;;;;14.60;1.00;;;;;;5060114;28;19920;-84
2024/02/23 09:51:15;;;;;;;;;;;14.80;1.00;;;;;;5043444;28;19913;-83
2024/02/23 09:53:42;;;;;;;;;;;14.50;1.00;;;;;;5060181;28;19954;-82
2024/02/23 09:56:08;;;;;;;;;;;14.20;1.00;;;;;;5061745;28;19909;-83
2024/02/23 09:58:34;;;;;;;;;;;13.80;1.00;;;;;;5052490;28;20301;-83
2024/02/23 10:01:01;;;;;;;;;;;13.30;1.00;;;;;;5062130;28;19909;-82
2024/02/23 10:03:28;;;;;;;;;;;12.80;99.90;;;;;;5061763;28;19917;-83
2024/02/23 10:05:54;;;;;;;;;;;12.40;99.90;;;;;;5054828;28;19955;-82
2024/02/23 10:08:19;;;;;;;;;;;12.20;99.90;;;;;;5059794;28;19932;-82
2024/02/23 10:10:50;;;;;;;;;;;11.80;1.00;;;;;;5059345;28;20003;-83
2024/02/23 10:13:23;;;;;;;;;;;11.50;99.90;;;;;;5058400;28;20317;-83
2024/02/23 10:15:49;;;;;;;;;;;11.40;1.00;;;;;;5060362;28;20004;-82
2024/02/23 10:18:15;;;;;;;;;;;11.30;99.90;;;;;;5060699;28;19916;-83
2024/02/23 10:20:40;;;;;;;;;;;11.30;99.90;;;;;;5062407;28;19956;-83
2024/02/23 10:23:07;;;;;;;;;;;11.30;99.90;;;;;;5053546;28;19916;-83
2024/02/23 10:25:36;;;;;;;;;;;11.50;99.90;;;;;;5058675;28;19999;-83
2024/02/23 10:28:05;;;;;;;;;;;11.50;99.90;;;;;;5056094;28;19975;-82
2024/02/23 10:30:30;;;;;;;;;;;11.60;99.90;;;;;;5057274;28;20362;-83
2024/02/23 10:32:57;;;;;;;;;;;11.60;99.90;;;;;;5057536;28;19923;-82
2024/02/23 10:35:22;;;;;;;;;;;11.40;99.90;;;;;;5061784;28;19916;-82
2024/02/23 10:37:50;;;;;;;;;;;11.40;99.90;;;;;;5060400;28;19920;-82
2024/02/23 10:40:16;;;;;;;;;;;11.30;99.90;;;;;;5059940;28;19923;-83
2024/02/23 10:42:44;;;;;;;;;;;11.40;99.90;;;;;;5059163;28;19917;-82
2024/02/23 10:45:10;;;;;;;;;;;11.10;99.90;;;;;;5055367;28;20283;-82
2024/02/23 10:47:36;;;;;;;;;;;11.10;99.90;;;;;;5056756;28;19928;-83
2024/02/23 10:50:02;;;;;;;;;;;11.20;99.90;;;;;;5056044;28;19920;-82
2024/02/23 10:52:28;;;;;;;;;;;11.20;99.90;;;;;;5055256;28;20313;-82
2024/02/23 10:54:55;;;;;;;;;;;11.50;99.90;;;;;;5055622;28;19996;-82
2024/02/23 10:57:21;;;;;;;;;;;11.90;99.90;;;;;;5052983;28;20362;-82
2024/02/23 10:59:47;;;;;;;;;;;13.20;1.00;;;;;;5053463;28;19913;-82
2024/02/23 11:02:16;;;;;;;;;;;13.90;1.00;;;;;;5055061;28;20370;-82
2024/02/23 11:04:42;;;;;;;;;;;14.10;99.90;;;;;;5056894;28;19919;-82
2024/02/23 11:07:13;;;;;;;;;;;14.00;1.00;;;;;;5058445;28;19917;-82
2024/02/23 11:09:38;;;;;;;;;;;13.60;1.00;;;;;;5066126;28;19913;-83
2024/02/23 11:12:07;;;;;;;;;;;13.30;99.90;;;;;;5045798;28;19912;-82
2024/02/23 11:14:34;;;;;;;;;;;13.80;99.90;;;;;;5062320;28;19913;-82
2024/02/23 11:17:00;;;;;;;;;;;14.00;1.00;;;;;;5060634;28;19918;-82
2024/02/23 11:19:33;;;;;;;;;;;13.60;1.00;;;;;;5061215;28;19923;-82
2024/02/23 11:21:59;;;;;;;;;;;13.40;99.90;;;;;;5060789;28;19979;-82
2024/02/23 11:24:25;;;;;;;;;;;13.30;1.00;;;;;;5059231;28;19949;-82
2024/02/23 11:26:55;;;;;;;;;;;13.20;1.00;;;;;;5060717;28;19913;-83
2024/02/23 11:29:21;;;;;;;;;;;13.00;1.00;;;;;;5060781;28;19913;-82
2024/02/23 11:31:47;;;;;;;;;;;12.70;1.00;;;;;;5058356;28;19924;-83
2024/02/23 11:34:12;;;;;;;;;;;12.50;1.00;;;;;;5057698;28;19924;-82
2024/02/23 11:36:38;;;;;;;;;;;12.50;1.00;;;;;;5040871;28;19917;-82
2024/02/23 11:39:04;;;;;;;;;;;12.50;1.00;;;;;;5040414;28;19908;-82
2024/02/23 11:41:29;;;;;;;;;;;12.50;99.90;;;;;;5060927;28;20275;-82
2024/02/23 11:43:55;;;;;;;;;;;12.50;1.00;;;;;;5058435;28;19917;-83
2024/02/23 11:46:21;;;;;;;;;;;12.50;1.00;;;;;;5057280;28;19980;-82
2024/02/23 11:48:53;;;;;;;;;;;12.70;1.00;;;;;;5041498;28;19913;-82
2024/02/23 11:51:18;;;;;;;;;;;12.80;1.00;;;;;;5052163;28;19984;-83
2024/02/23 11:53:45;;;;;;;;;;;12.60;1.00;;;;;;5056904;28;19987;-82
2024/02/23 11:56:11;;;;;;;;;;;12.40;1.00;;;;;;5030345;28;19913;-82
2024/02/23 11:58:36;;;;;;;;;;;12.10;1.00;;;;;;5051865;28;20259;-83
2024/02/23 12:01:02;;;;;;;;;;;12.00;1.00;;;;;;5050058;28;19987;-83
2024/02/23 12:03:29;;;;;;;;;;;11.90;1.00;;;;;;5044660;28;20002;-81
2024/02/23 12:05:55;;;;;;;;;;;12.20;1.00;;;;;;5055552;28;19927;-83
2024/02/23 12:08:21;;;;;;;;;;;12.50;1.00;;;;;;5053593;28;20350;-83
2024/02/23 12:10:47;;;;;;;;;;;12.70;1.00;;;;;;5053287;28;19913;-83
2024/02/23 12:13:13;;;;;;;;;;;12.90;1.00;;;;;;5035671;28;19917;-82
2024/02/23 12:15:38;;;;;;;;;;;13.40;1.00;;;;;;5059917;28;19913;-83
2024/02/23 12:18:04;;;;;;;;;;;13.40;99.90;;;;;;5062321;28;19945;-83
2024/02/23 12:20:32;;;;;;;;;;;13.30;1.00;;;;;;5048968;28;19995;-83
2024/02/23 12:23:00;;;;;;;;;;;13.00;1.00;;;;;;5048879;28;20424;-82
2024/02/23 12:25:26;;;;;;;;;;;12.80;1.00;;;;;;5049517;28;19912;-82
2024/02/23 12:27:55;;;;;;;;;;;12.60;1.00;;;;;;5049376;28;20333;-83
2024/02/23 12:30:21;;;;;;;;;;;12.30;99.90;;;;;;5052438;28;20497;-82
2024/02/23 12:32:46;;;;;;;;;;;12.20;99.90;;;;;;5048778;28;19917;-82
2024/02/23 12:35:12;;;;;;;;;;;12.10;99.90;;;;;;5056598;28;19931;-83
2024/02/23 12:37:39;;;;;;;;;;;12.10;99.90;;;;;;5050782;28;19912;-83
2024/02/23 12:40:05;;;;;;;;;;;12.00;99.90;;;;;;5062500;28;20031;-82
2024/02/23 12:42:31;;;;;;;;;;;11.90;99.90;;;;;;5041761;28;19921;-83
2024/02/23 12:44:56;;;;;;;;;;;11.90;99.90;;;;;;5053505;28;19959;-83
2024/02/23 12:47:22;;;;;;;;;;;12.00;1.00;;;;;;5060602;28;19952;-82
2024/02/23 12:49:47;;;;;;;;;;;12.70;1.00;;;;;;5060622;28;19919;-83
2024/02/23 12:52:13;;;;;;;;;;;13.20;1.00;;;;;;5055702;28;19909;-83
2024/02/23 12:54:38;;;;;;;;;;;13.30;1.00;;;;;;5052281;28;20365;-82
2024/02/23 12:57:04;;;;;;;;;;;13.20;1.00;;;;;;5054757;28;19920;-83
2024/02/23 12:59:30;;;;;;;;;;;13.20;1.00;;;;;;5055481;28;20326;-83
2024/02/23 13:01:55;;;;;;;;;;;12.90;1.00;;;;;;5053237;28;19925;-82
2024/02/23 13:04:21;;;;;;;;;;;12.80;1.00;;;;;;5041414;28;19972;-82
2024/02/23 13:06:47;;;;;;;;;;;12.50;1.00;;;;;;5040765;28;19960;-81
2024/02/23 13:09:14;;;;;;;;;;;12.40;99.90;;;;;;5040761;28;20407;-82
2024/02/23 13:11:40;;;;;;;;;;;12.50;1.00;;;;;;5041617;28;19920;-82
2024/02/23 13:14:05;;;;;;;;;;;12.70;1.00;;;;;;5038708;28;19920;-82
2024/02/23 13:16:31;;;;;;;;;;;12.80;1.00;;;;;;5037805;28;19982;-81
2024/02/23 13:18:56;;;;;;;;;;;12.80;1.00;;;;;;5040886;28;19967;-82
2024/02/23 13:21:22;;;;;;;;;;;12.90;1.00;;;;;;5044789;28;19913;-82
2024/02/23 13:23:48;;;;;;;;;;;13.00;99.90;;;;;;5041225;28;19921;-81
2024/02/23 13:26:14;;;;;;;;;;;13.10;99.90;;;;;;5041928;28;19913;-82
2024/02/23 13:28:41;;;;;;;;;;;13.50;99.90;;;;;;5043108;28;20368;-83
2024/02/23 13:31:07;;;;;;;;;;;14.20;99.90;;;;;;5040563;28;20398;-82
2024/02/23 13:33:32;;;;;;;;;;;14.30;99.90;;;;;;5035040;28;19917;-83
2024/02/23 13:35:58;;;;;;;;;;;14.30;99.90;;;;;;5037622;28;19920;-83
2024/02/23 13:38:24;;;;;;;;;;;14.20;99.90;;;;;;5041098;28;19913;-82
2024/02/23 13:40:50;;;;;;;;;;;13.90;99.90;;;;;;5039204;28;20035;-82
2024/02/23 13:43:17;;;;;;;;;;;13.70;99.90;;;;;;5036246;28;21298;-82
2024/02/23 13:45:50;;;;;;;;;;;13.60;99.90;;;;;;5037327;28;19913;-83
2024/02/23 13:48:16;;;;;;;;;;;13.40;99.90;;;;;;5035285;28;19976;-82
2024/02/23 13:50:42;;;;;;;;;;;13.20;99.90;;;;;;5037883;28;19932;-82
2024/02/23 13:53:07;;;;;;;;;;;13.00;99.90;;;;;;5035357;28;19963;-82
2024/02/23 13:55:33;;;;;;;;;;;12.90;99.90;;;;;;5036080;28;19928;-82
2024/02/23 13:57:58;;;;;;;;;;;12.90;99.90;;;;;;5033756;28;19913;-82
2024/02/23 14:00:24;;;;;;;;;;;13.00;99.90;;;;;;5037808;28;19913;-82
2024/02/23 14:02:49;;;;;;;;;;;13.00;99.90;;;;;;5036840;28;19978;-82
2024/02/23 14:05:15;;;;;;;;;;;13.00;99.90;;;;;;5037701;28;19913;-82
2024/02/23 14:07:40;;;;;;;;;;;12.90;99.90;;;;;;5041945;28;20370;-83
2024/02/23 14:10:07;;;;;;;;;;;13.00;99.90;;;;;;5047947;28;19924;-82
2024/02/23 14:12:32;;;;;;;;;;;13.00;99.90;;;;;;5047150;28;20349;-83
2024/02/23 14:14:57;;;;;;;;;;;12.90;99.90;;;;;;5042343;28;19924;-82
2024/02/23 14:17:23;;;;;;;;;;;12.80;99.90;;;;;;5043289;28;19913;-83
2024/02/23 14:19:50;;;;;;;;;;;12.70;99.90;;;;;;5039025;28;19927;-83
2024/02/23 14:22:16;;;;;;;;;;;12.50;99.90;;;;;;5037060;28;20362;-82
2024/02/23 14:24:41;;;;;;;;;;;12.40;99.90;;;;;;5037901;28;19955;-82